sensor_id;sensor_type;location;lat;lon;timestamp;P1;durP1;ratioP1;P2;durP2;ratioP2
41099;SDS011;26844;53.686;-6.346;2023-12-20T00:00:53;1.15;;;1.15;;
41099;SDS011;26844;53.686;-6.346;2023-12-20T00:03:19;1.38;;;1.38;;
41099;SDS011;26844;53.686;-6.346;2023-12-20T00:05:44;1.17;;;1.17;;
41099;SDS011;26844;53.686;-6.346;2023-12-20T00:08:09;1.10;;;1.10;;
41099;SDS011;26844;53.686;-6.346;2023-12-20T00:10:34;0.95;;;0.95;;
41099;SDS011;26844;53.686;-6.346;2023-12-20T00:13:00;1.10;;;1.10;;
41099;SDS011;26844;53.686;-6.346;2023-12-20T00:15:25;1.38;;;1.38;;
41099;SDS011;26844;53.686;-6.346;2023-12-20T00:17:50;1.20;;;1.20;;
41099;SDS011;26844;53.686;-6.346;2023-12-20T00:20:16;1.00;;;1.00;;
41099;SDS011;26844;53.686;-6.346;2023-12-20T00:22:41;1.38;;;1.38;;
41099;SDS011;26844;53.686;-6.346;2023-12-20T00:25:06;1.30;;;1.30;;
41099;SDS011;26844;53.686;-6.346;2023-12-20T00:27:32;1.50;;;1.50;;
41099;SDS011;26844;53.686;-6.346;2023-12-20T00:29:57;1.48;;;1.48;;
41099;SDS011;26844;53.686;-6.346;2023-12-20T00:32:22;1.50;;;1.50;;
41099;SDS011;26844;53.686;-6.346;2023-12-20T00:34:47;1.60;;;1.60;;
41099;SDS011;26844;53.686;-6.346;2023-12-20T00:37:13;1.20;;;1.20;;
41099;SDS011;26844;53.686;-6.346;2023-12-20T00:39:38;1.50;;;1.50;;
41099;SDS011;26844;53.686;-6.346;2023-12-20T00:42:03;1.20;;;1.20;;
41099;SDS011;26844;53.686;-6.346;2023-12-20T00:44:29;1.30;;;1.30;;
41099;SDS011;26844;53.686;-6.346;2023-12-20T00:46:54;1.35;;;1.35;;
41099;SDS011;26844;53.686;-6.346;2023-12-20T00:49:19;1.67;;;1.67;;
41099;SDS011;26844;53.686;-6.346;2023-12-20T00:51:44;1.52;;;1.52;;
41099;SDS011;26844;53.686;-6.346;2023-12-20T00:54:10;1.70;;;1.70;;
41099;SDS011;26844;53.686;-6.346;2023-12-20T00:56:35;1.40;;;1.40;;
41099;SDS011;26844;53.686;-6.346;2023-12-20T00:59:00;1.20;;;1.20;;
41099;SDS011;26844;53.686;-6.346;2023-12-20T01:01:26;1.40;;;1.40;;
41099;SDS011;26844;53.686;-6.346;2023-12-20T01:03:51;1.38;;;1.38;;
41099;SDS011;26844;53.686;-6.346;2023-12-20T01:06:16;1.55;;;1.55;;
41099;SDS011;26844;53.686;-6.346;2023-12-20T01:08:42;1.70;;;1.70;;
41099;SDS011;26844;53.686;-6.346;2023-12-20T01:11:07;1.30;;;1.30;;
41099;SDS011;26844;53.686;-6.346;2023-12-20T01:13:32;1.50;;;1.50;;
41099;SDS011;26844;53.686;-6.346;2023-12-20T01:15:57;1.40;;;1.40;;
41099;SDS011;26844;53.686;-6.346;2023-12-20T01:18:23;1.20;;;1.20;;
41099;SDS011;26844;53.686;-6.346;2023-12-20T01:20:48;1.40;;;1.40;;
41099;SDS011;26844;53.686;-6.346;2023-12-20T01:23:13;1.20;;;1.20;;
41099;SDS011;26844;53.686;-6.346;2023-12-20T01:25:39;1.08;;;1.08;;
41099;SDS011;26844;53.686;-6.346;2023-12-20T01:28:04;1.40;;;1.40;;
41099;SDS011;26844;53.686;-6.346;2023-12-20T01:30:29;1.20;;;1.20;;
41099;SDS011;26844;53.686;-6.346;2023-12-20T01:32:54;1.00;;;1.00;;
41099;SDS011;26844;53.686;-6.346;2023-12-20T01:35:20;1.30;;;1.30;;
41099;SDS011;26844;53.686;-6.346;2023-12-20T01:37:45;1.40;;;1.40;;
41099;SDS011;26844;53.686;-6.346;2023-12-20T01:40:10;1.30;;;1.30;;
41099;SDS011;26844;53.686;-6.346;2023-12-20T01:42:35;1.40;;;1.40;;
41099;SDS011;26844;53.686;-6.346;2023-12-20T01:45:01;1.40;;;1.40;;
41099;SDS011;26844;53.686;-6.346;2023-12-20T01:47:27;1.50;;;1.50;;
41099;SDS011;26844;53.686;-6.346;2023-12-20T01:49:52;1.35;;;1.35;;
41099;SDS011;26844;53.686;-6.346;2023-12-20T01:52:18;1.30;;;1.30;;
41099;SDS011;26844;53.686;-6.346;2023-12-20T01:54:44;1.50;;;1.50;;
41099;SDS011;26844;53.686;-6.346;2023-12-20T01:57:09;1.40;;;1.40;;
41099;SDS011;26844;53.686;-6.346;2023-12-20T01:59:35;1.27;;;1.27;;
41099;SDS011;26844;53.686;-6.346;2023-12-20T02:02:00;1.48;;;1.48;;
41099;SDS011;26844;53.686;-6.346;2023-12-20T02:04:28;1.27;;;1.27;;
41099;SDS011;26844;53.686;-6.346;2023-12-20T02:06:54;1.30;;;1.30;;
41099;SDS011;26844;53.686;-6.346;2023-12-20T02:09:21;1.20;;;1.20;;
41099;SDS011;26844;53.686;-6.346;2023-12-20T02:11:47;1.30;;;1.30;;
41099;SDS011;26844;53.686;-6.346;2023-12-20T02:14:12;1.20;;;1.20;;
41099;SDS011;26844;53.686;-6.346;2023-12-20T02:16:37;1.17;;;1.17;;
41099;SDS011;26844;53.686;-6.346;2023-12-20T02:19:03;1.05;;;1.05;;
41099;SDS011;26844;53.686;-6.346;2023-12-20T02:21:33;1.30;;;1.30;;
41099;SDS011;26844;53.686;-6.346;2023-12-20T02:24:00;1.30;;;1.30;;
41099;SDS011;26844;53.686;-6.346;2023-12-20T02:26:25;1.20;;;1.20;;
41099;SDS011;26844;53.686;-6.346;2023-12-20T02:28:50;1.50;;;1.50;;
41099;SDS011;26844;53.686;-6.346;2023-12-20T02:31:15;1.40;;;1.40;;
41099;SDS011;26844;53.686;-6.346;2023-12-20T02:33:41;1.40;;;1.40;;
41099;SDS011;26844;53.686;-6.346;2023-12-20T02:36:07;1.50;;;1.50;;
41099;SDS011;26844;53.686;-6.346;2023-12-20T02:38:32;1.30;;;1.30;;
41099;SDS011;26844;53.686;-6.346;2023-12-20T02:40:57;1.25;;;1.25;;
41099;SDS011;26844;53.686;-6.346;2023-12-20T02:43:23;1.48;;;1.48;;
41099;SDS011;26844;53.686;-6.346;2023-12-20T02:45:48;2.70;;;2.60;;
41099;SDS011;26844;53.686;-6.346;2023-12-20T02:48:13;4.57;;;4.47;;
41099;SDS011;26844;53.686;-6.346;2023-12-20T02:50:38;4.00;;;3.90;;
41099;SDS011;26844;53.686;-6.346;2023-12-20T02:53:04;4.00;;;3.90;;
41099;SDS011;26844;53.686;-6.346;2023-12-20T02:55:29;3.65;;;3.55;;
41099;SDS011;26844;53.686;-6.346;2023-12-20T02:57:54;3.20;;;3.10;;
41099;SDS011;26844;53.686;-6.346;2023-12-20T03:00:19;2.85;;;2.75;;
41099;SDS011;26844;53.686;-6.346;2023-12-20T03:02:45;2.90;;;2.80;;
41099;SDS011;26844;53.686;-6.346;2023-12-20T03:05:10;2.45;;;2.35;;
41099;SDS011;26844;53.686;-6.346;2023-12-20T03:07:36;1.60;;;1.60;;
41099;SDS011;26844;53.686;-6.346;2023-12-20T03:10:02;1.77;;;1.77;;
41099;SDS011;26844;53.686;-6.346;2023-12-20T03:12:28;1.98;;;1.98;;
41099;SDS011;26844;53.686;-6.346;2023-12-20T03:14:53;1.50;;;1.50;;
41099;SDS011;26844;53.686;-6.346;2023-12-20T03:17:18;1.85;;;1.85;;
41099;SDS011;26844;53.686;-6.346;2023-12-20T03:19:44;1.40;;;1.40;;
41099;SDS011;26844;53.686;-6.346;2023-12-20T03:22:09;1.80;;;1.80;;
41099;SDS011;26844;53.686;-6.346;2023-12-20T03:24:35;1.67;;;1.67;;
41099;SDS011;26844;53.686;-6.346;2023-12-20T03:27:00;1.60;;;1.60;;
41099;SDS011;26844;53.686;-6.346;2023-12-20T03:29:26;1.83;;;1.83;;
41099;SDS011;26844;53.686;-6.346;2023-12-20T03:31:51;1.90;;;1.90;;
41099;SDS011;26844;53.686;-6.346;2023-12-20T03:34:16;1.90;;;1.90;;
41099;SDS011;26844;53.686;-6.346;2023-12-20T03:36:41;2.20;;;2.20;;
41099;SDS011;26844;53.686;-6.346;2023-12-20T03:39:07;2.30;;;2.28;;
41099;SDS011;26844;53.686;-6.346;2023-12-20T03:41:32;2.75;;;2.65;;
41099;SDS011;26844;53.686;-6.346;2023-12-20T03:43:58;3.03;;;2.92;;
41099;SDS011;26844;53.686;-6.346;2023-12-20T03:46:23;3.28;;;3.17;;
41099;SDS011;26844;53.686;-6.346;2023-12-20T03:48:48;2.80;;;2.70;;
41099;SDS011;26844;53.686;-6.346;2023-12-20T03:51:13;2.58;;;2.47;;
41099;SDS011;26844;53.686;-6.346;2023-12-20T03:53:39;2.25;;;2.25;;
41099;SDS011;26844;53.686;-6.346;2023-12-20T03:56:05;2.10;;;2.10;;
41099;SDS011;26844;53.686;-6.346;2023-12-20T03:58:31;2.50;;;2.40;;
41099;SDS011;26844;53.686;-6.346;2023-12-20T04:00:56;2.20;;;2.20;;
41099;SDS011;26844;53.686;-6.346;2023-12-20T04:03:21;2.47;;;2.38;;
41099;SDS011;26844;53.686;-6.346;2023-12-20T04:05:46;2.92;;;2.83;;
41099;SDS011;26844;53.686;-6.346;2023-12-20T04:08:12;2.70;;;2.60;;
41099;SDS011;26844;53.686;-6.346;2023-12-20T04:10:37;2.80;;;2.70;;
41099;SDS011;26844;53.686;-6.346;2023-12-20T04:13:03;2.72;;;2.63;;
41099;SDS011;26844;53.686;-6.346;2023-12-20T04:15:28;2.40;;;2.30;;
41099;SDS011;26844;53.686;-6.346;2023-12-20T04:17:54;2.45;;;2.35;;
41099;SDS011;26844;53.686;-6.346;2023-12-20T04:20:19;3.00;;;2.90;;
41099;SDS011;26844;53.686;-6.346;2023-12-20T04:22:44;2.83;;;2.72;;
41099;SDS011;26844;53.686;-6.346;2023-12-20T04:25:09;2.80;;;2.70;;
41099;SDS011;26844;53.686;-6.346;2023-12-20T04:27:35;2.72;;;2.63;;
41099;SDS011;26844;53.686;-6.346;2023-12-20T04:30:00;2.47;;;2.38;;
41099;SDS011;26844;53.686;-6.346;2023-12-20T04:32:25;2.60;;;2.50;;
41099;SDS011;26844;53.686;-6.346;2023-12-20T04:34:50;2.50;;;2.40;;
41099;SDS011;26844;53.686;-6.346;2023-12-20T04:37:16;2.60;;;2.50;;
41099;SDS011;26844;53.686;-6.346;2023-12-20T04:39:41;3.03;;;2.92;;
41099;SDS011;26844;53.686;-6.346;2023-12-20T04:42:07;4.10;;;4.00;;
41099;SDS011;26844;53.686;-6.346;2023-12-20T04:44:32;6.00;;;5.80;;
41099;SDS011;26844;53.686;-6.346;2023-12-20T04:46:57;6.53;;;6.32;;
41099;SDS011;26844;53.686;-6.346;2023-12-20T04:49:22;7.43;;;7.13;;
41099;SDS011;26844;53.686;-6.346;2023-12-20T04:51:48;7.40;;;7.10;;
41099;SDS011;26844;53.686;-6.346;2023-12-20T04:54:13;8.02;;;7.72;;
41099;SDS011;26844;53.686;-6.346;2023-12-20T04:56:38;8.10;;;7.80;;
41099;SDS011;26844;53.686;-6.346;2023-12-20T04:59:04;7.88;;;7.57;;
41099;SDS011;26844;53.686;-6.346;2023-12-20T05:01:29;7.75;;;7.45;;
41099;SDS011;26844;53.686;-6.346;2023-12-20T05:03:54;7.40;;;7.10;;
41099;SDS011;26844;53.686;-6.346;2023-12-20T05:06:20;7.47;;;7.18;;
41099;SDS011;26844;53.686;-6.346;2023-12-20T05:08:45;6.70;;;6.50;;
41099;SDS011;26844;53.686;-6.346;2023-12-20T05:11:10;6.78;;;6.57;;
41099;SDS011;26844;53.686;-6.346;2023-12-20T05:13:38;5.93;;;5.72;;
41099;SDS011;26844;53.686;-6.346;2023-12-20T05:16:03;5.75;;;5.55;;
41099;SDS011;26844;53.686;-6.346;2023-12-20T05:18:29;5.30;;;5.10;;
41099;SDS011;26844;53.686;-6.346;2023-12-20T05:20:54;4.63;;;4.53;;
41099;SDS011;26844;53.686;-6.346;2023-12-20T05:23:19;4.30;;;4.20;;
41099;SDS011;26844;53.686;-6.346;2023-12-20T05:25:45;3.80;;;3.70;;
41099;SDS011;26844;53.686;-6.346;2023-12-20T05:28:10;3.40;;;3.30;;
41099;SDS011;26844;53.686;-6.346;2023-12-20T05:30:35;3.58;;;3.47;;
41099;SDS011;26844;53.686;-6.346;2023-12-20T05:33:01;3.90;;;3.80;;
41099;SDS011;26844;53.686;-6.346;2023-12-20T05:35:26;4.07;;;3.97;;
41099;SDS011;26844;53.686;-6.346;2023-12-20T05:37:51;3.88;;;3.78;;
41099;SDS011;26844;53.686;-6.346;2023-12-20T05:40:16;3.35;;;3.25;;
41099;SDS011;26844;53.686;-6.346;2023-12-20T05:42:42;3.70;;;3.60;;
41099;SDS011;26844;53.686;-6.346;2023-12-20T05:45:08;3.95;;;3.85;;
41099;SDS011;26844;53.686;-6.346;2023-12-20T05:47:34;3.80;;;3.70;;
41099;SDS011;26844;53.686;-6.346;2023-12-20T05:49:59;4.05;;;3.95;;
41099;SDS011;26844;53.686;-6.346;2023-12-20T05:52:24;4.25;;;4.15;;
41099;SDS011;26844;53.686;-6.346;2023-12-20T05:54:50;4.50;;;4.40;;
41099;SDS011;26844;53.686;-6.346;2023-12-20T05:57:15;4.60;;;4.50;;
41099;SDS011;26844;53.686;-6.346;2023-12-20T05:59:40;4.78;;;4.60;;
41099;SDS011;26844;53.686;-6.346;2023-12-20T06:02:05;4.30;;;4.20;;
41099;SDS011;26844;53.686;-6.346;2023-12-20T06:04:31;4.20;;;4.10;;
41099;SDS011;26844;53.686;-6.346;2023-12-20T06:06:56;4.30;;;4.20;;
41099;SDS011;26844;53.686;-6.346;2023-12-20T06:09:22;4.00;;;3.90;;
41099;SDS011;26844;53.686;-6.346;2023-12-20T06:11:47;3.72;;;3.63;;
41099;SDS011;26844;53.686;-6.346;2023-12-20T06:14:12;3.50;;;3.40;;
41099;SDS011;26844;53.686;-6.346;2023-12-20T06:16:37;3.55;;;3.45;;
41099;SDS011;26844;53.686;-6.346;2023-12-20T06:19:03;3.28;;;3.17;;
41099;SDS011;26844;53.686;-6.346;2023-12-20T06:21:28;2.88;;;2.78;;
41099;SDS011;26844;53.686;-6.346;2023-12-20T06:23:53;2.70;;;2.60;;
41099;SDS011;26844;53.686;-6.346;2023-12-20T06:26:19;2.60;;;2.50;;
41099;SDS011;26844;53.686;-6.346;2023-12-20T06:28:44;2.88;;;2.78;;
41099;SDS011;26844;53.686;-6.346;2023-12-20T06:31:09;2.80;;;2.70;;
41099;SDS011;26844;53.686;-6.346;2023-12-20T06:33:35;2.70;;;2.60;;
41099;SDS011;26844;53.686;-6.346;2023-12-20T06:36:00;3.80;;;3.70;;
41099;SDS011;26844;53.686;-6.346;2023-12-20T06:38:26;4.20;;;4.10;;
41099;SDS011;26844;53.686;-6.346;2023-12-20T06:40:51;4.30;;;4.20;;
41099;SDS011;26844;53.686;-6.346;2023-12-20T06:43:16;4.40;;;4.30;;
41099;SDS011;26844;53.686;-6.346;2023-12-20T06:45:41;4.90;;;4.70;;
41099;SDS011;26844;53.686;-6.346;2023-12-20T06:48:07;5.78;;;5.57;;
41099;SDS011;26844;53.686;-6.346;2023-12-20T06:50:32;5.72;;;5.53;;
41099;SDS011;26844;53.686;-6.346;2023-12-20T06:52:57;6.05;;;5.85;;
41099;SDS011;26844;53.686;-6.346;2023-12-20T06:55:23;5.82;;;5.63;;
41099;SDS011;26844;53.686;-6.346;2023-12-20T06:57:48;5.13;;;4.93;;
41099;SDS011;26844;53.686;-6.346;2023-12-20T07:00:13;4.43;;;4.32;;
41099;SDS011;26844;53.686;-6.346;2023-12-20T07:02:39;4.50;;;4.40;;
41099;SDS011;26844;53.686;-6.346;2023-12-20T07:05:04;4.00;;;3.90;;
41099;SDS011;26844;53.686;-6.346;2023-12-20T07:07:30;3.60;;;3.50;;
41099;SDS011;26844;53.686;-6.346;2023-12-20T07:09:55;3.42;;;3.33;;
41099;SDS011;26844;53.686;-6.346;2023-12-20T07:12:20;3.20;;;3.10;;
41099;SDS011;26844;53.686;-6.346;2023-12-20T07:14:46;3.25;;;3.15;;
41099;SDS011;26844;53.686;-6.346;2023-12-20T07:17:11;3.45;;;3.35;;
41099;SDS011;26844;53.686;-6.346;2023-12-20T07:19:38;2.70;;;2.60;;
41099;SDS011;26844;53.686;-6.346;2023-12-20T07:22:04;2.60;;;2.50;;
41099;SDS011;26844;53.686;-6.346;2023-12-20T07:24:29;2.40;;;2.30;;
41099;SDS011;26844;53.686;-6.346;2023-12-20T07:26:54;1.80;;;1.80;;
41099;SDS011;26844;53.686;-6.346;2023-12-20T07:29:20;2.50;;;2.40;;
41099;SDS011;26844;53.686;-6.346;2023-12-20T07:31:45;2.00;;;2.00;;
41099;SDS011;26844;53.686;-6.346;2023-12-20T07:34:10;2.20;;;2.20;;
41099;SDS011;26844;53.686;-6.346;2023-12-20T07:36:35;2.10;;;2.10;;
41099;SDS011;26844;53.686;-6.346;2023-12-20T07:39:01;2.22;;;2.22;;
41099;SDS011;26844;53.686;-6.346;2023-12-20T07:41:26;2.50;;;2.40;;
41099;SDS011;26844;53.686;-6.346;2023-12-20T07:43:51;2.22;;;2.22;;
41099;SDS011;26844;53.686;-6.346;2023-12-20T07:46:18;2.50;;;2.40;;
41099;SDS011;26844;53.686;-6.346;2023-12-20T07:48:47;2.10;;;2.10;;
41099;SDS011;26844;53.686;-6.346;2023-12-20T07:51:12;2.08;;;2.08;;
41099;SDS011;26844;53.686;-6.346;2023-12-20T07:53:39;2.08;;;2.08;;
41099;SDS011;26844;53.686;-6.346;2023-12-20T07:56:14;2.05;;;2.05;;
41099;SDS011;26844;53.686;-6.346;2023-12-20T07:58:39;1.92;;;1.92;;
41099;SDS011;26844;53.686;-6.346;2023-12-20T08:01:04;1.90;;;1.90;;
41099;SDS011;26844;53.686;-6.346;2023-12-20T08:03:30;1.80;;;1.80;;
41099;SDS011;26844;53.686;-6.346;2023-12-20T08:05:55;2.17;;;2.17;;
41099;SDS011;26844;53.686;-6.346;2023-12-20T08:08:21;2.08;;;2.08;;
41099;SDS011;26844;53.686;-6.346;2023-12-20T08:10:46;2.30;;;2.28;;
41099;SDS011;26844;53.686;-6.346;2023-12-20T08:13:12;2.60;;;2.50;;
41099;SDS011;26844;53.686;-6.346;2023-12-20T08:15:37;3.00;;;2.90;;
41099;SDS011;26844;53.686;-6.346;2023-12-20T08:18:02;2.67;;;2.58;;
41099;SDS011;26844;53.686;-6.346;2023-12-20T08:20:28;2.80;;;2.70;;
41099;SDS011;26844;53.686;-6.346;2023-12-20T08:22:53;2.58;;;2.47;;
41099;SDS011;26844;53.686;-6.346;2023-12-20T08:25:18;2.58;;;2.47;;
41099;SDS011;26844;53.686;-6.346;2023-12-20T08:27:43;2.90;;;2.80;;
41099;SDS011;26844;53.686;-6.346;2023-12-20T08:30:09;2.60;;;2.50;;
41099;SDS011;26844;53.686;-6.346;2023-12-20T08:32:34;3.15;;;3.05;;
41099;SDS011;26844;53.686;-6.346;2023-12-20T08:35:00;2.83;;;2.72;;
41099;SDS011;26844;53.686;-6.346;2023-12-20T08:37:25;3.20;;;3.10;;
41099;SDS011;26844;53.686;-6.346;2023-12-20T08:39:50;3.55;;;3.45;;
41099;SDS011;26844;53.686;-6.346;2023-12-20T08:42:16;3.15;;;3.05;;
41099;SDS011;26844;53.686;-6.346;2023-12-20T08:44:41;3.30;;;3.20;;
41099;SDS011;26844;53.686;-6.346;2023-12-20T08:47:06;3.92;;;3.83;;
41099;SDS011;26844;53.686;-6.346;2023-12-20T08:49:32;4.10;;;4.00;;
41099;SDS011;26844;53.686;-6.346;2023-12-20T08:51:57;4.45;;;4.35;;
41099;SDS011;26844;53.686;-6.346;2023-12-20T08:54:22;2.88;;;2.78;;
41099;SDS011;26844;53.686;-6.346;2023-12-20T08:56:48;3.88;;;3.78;;
41099;SDS011;26844;53.686;-6.346;2023-12-20T08:59:13;3.60;;;3.50;;
41099;SDS011;26844;53.686;-6.346;2023-12-20T09:01:39;4.53;;;4.43;;
41099;SDS011;26844;53.686;-6.346;2023-12-20T09:04:04;4.97;;;4.78;;
41099;SDS011;26844;53.686;-6.346;2023-12-20T09:06:31;5.45;;;5.25;;
41099;SDS011;26844;53.686;-6.346;2023-12-20T09:08:56;6.05;;;5.85;;
41099;SDS011;26844;53.686;-6.346;2023-12-20T09:11:21;6.18;;;5.97;;
41099;SDS011;26844;53.686;-6.346;2023-12-20T09:13:47;6.35;;;6.15;;
41099;SDS011;26844;53.686;-6.346;2023-12-20T09:16:12;6.07;;;5.88;;
41099;SDS011;26844;53.686;-6.346;2023-12-20T09:18:38;5.80;;;5.60;;
41099;SDS011;26844;53.686;-6.346;2023-12-20T09:21:04;5.82;;;5.63;;
41099;SDS011;26844;53.686;-6.346;2023-12-20T09:23:29;5.60;;;5.40;;
41099;SDS011;26844;53.686;-6.346;2023-12-20T09:25:54;6.03;;;5.82;;
41099;SDS011;26844;53.686;-6.346;2023-12-20T09:28:20;5.97;;;5.78;;
41099;SDS011;26844;53.686;-6.346;2023-12-20T09:30:45;5.43;;;5.22;;
41099;SDS011;26844;53.686;-6.346;2023-12-20T09:33:11;5.50;;;5.30;;
41099;SDS011;26844;53.686;-6.346;2023-12-20T09:35:36;5.10;;;4.90;;
41099;SDS011;26844;53.686;-6.346;2023-12-20T09:38:01;4.53;;;4.43;;
41099;SDS011;26844;53.686;-6.346;2023-12-20T09:40:27;3.72;;;3.63;;
41099;SDS011;26844;53.686;-6.346;2023-12-20T09:43:03;3.20;;;3.10;;
41099;SDS011;26844;53.686;-6.346;2023-12-20T09:45:28;3.60;;;3.50;;
41099;SDS011;26844;53.686;-6.346;2023-12-20T09:47:55;3.40;;;3.30;;
41099;SDS011;26844;53.686;-6.346;2023-12-20T09:50:21;3.25;;;3.15;;
41099;SDS011;26844;53.686;-6.346;2023-12-20T09:52:50;2.42;;;2.33;;
41099;SDS011;26844;53.686;-6.346;2023-12-20T09:55:19;2.38;;;2.30;;
41099;SDS011;26844;53.686;-6.346;2023-12-20T09:57:45;2.50;;;2.40;;
41099;SDS011;26844;53.686;-6.346;2023-12-20T10:00:11;3.03;;;2.92;;
41099;SDS011;26844;53.686;-6.346;2023-12-20T10:02:36;2.60;;;2.50;;
41099;SDS011;26844;53.686;-6.346;2023-12-20T10:05:03;2.67;;;2.58;;
41099;SDS011;26844;53.686;-6.346;2023-12-20T10:07:34;2.63;;;2.53;;
41099;SDS011;26844;53.686;-6.346;2023-12-20T10:09:59;2.95;;;2.85;;
41099;SDS011;26844;53.686;-6.346;2023-12-20T10:12:24;2.22;;;2.22;;
41099;SDS011;26844;53.686;-6.346;2023-12-20T10:14:50;3.00;;;2.90;;
41099;SDS011;26844;53.686;-6.346;2023-12-20T10:17:16;3.00;;;2.90;;
41099;SDS011;26844;53.686;-6.346;2023-12-20T10:19:42;3.45;;;3.35;;
41099;SDS011;26844;53.686;-6.346;2023-12-20T10:22:07;3.40;;;3.30;;
41099;SDS011;26844;53.686;-6.346;2023-12-20T10:24:33;3.50;;;3.40;;
41099;SDS011;26844;53.686;-6.346;2023-12-20T10:27:04;3.40;;;3.30;;
41099;SDS011;26844;53.686;-6.346;2023-12-20T10:29:36;3.95;;;3.85;;
41099;SDS011;26844;53.686;-6.346;2023-12-20T10:34:45;3.00;;;2.90;;
41099;SDS011;26844;53.686;-6.346;2023-12-20T10:37:10;3.40;;;3.30;;
41099;SDS011;26844;53.686;-6.346;2023-12-20T10:39:35;3.65;;;3.55;;
41099;SDS011;26844;53.686;-6.346;2023-12-20T10:42:01;4.13;;;4.03;;
41099;SDS011;26844;53.686;-6.346;2023-12-20T10:44:26;3.70;;;3.60;;
41099;SDS011;26844;53.686;-6.346;2023-12-20T10:46:51;3.55;;;3.45;;
41099;SDS011;26844;53.686;-6.346;2023-12-20T10:49:22;3.70;;;3.60;;
41099;SDS011;26844;53.686;-6.346;2023-12-20T10:51:48;3.95;;;3.85;;
41099;SDS011;26844;53.686;-6.346;2023-12-20T10:54:13;3.83;;;3.72;;
41099;SDS011;26844;53.686;-6.346;2023-12-20T10:56:39;3.67;;;3.58;;
41099;SDS011;26844;53.686;-6.346;2023-12-20T10:59:04;3.80;;;3.70;;
41099;SDS011;26844;53.686;-6.346;2023-12-20T11:01:31;4.30;;;4.20;;
41099;SDS011;26844;53.686;-6.346;2023-12-20T11:03:56;4.07;;;3.97;;
41099;SDS011;26844;53.686;-6.346;2023-12-20T11:06:43;3.53;;;3.42;;
41099;SDS011;26844;53.686;-6.346;2023-12-20T11:09:24;3.50;;;3.40;;
41099;SDS011;26844;53.686;-6.346;2023-12-20T11:17:08;3.13;;;3.03;;
41099;SDS011;26844;53.686;-6.346;2023-12-20T11:19:35;2.78;;;2.67;;
41099;SDS011;26844;53.686;-6.346;2023-12-20T11:22:01;2.45;;;2.35;;
41099;SDS011;26844;53.686;-6.346;2023-12-20T11:24:26;1.80;;;1.80;;
41099;SDS011;26844;53.686;-6.346;2023-12-20T11:26:54;1.70;;;1.70;;
41099;SDS011;26844;53.686;-6.346;2023-12-20T11:29:31;1.83;;;1.83;;
41099;SDS011;26844;53.686;-6.346;2023-12-20T11:31:57;1.80;;;1.80;;
41099;SDS011;26844;53.686;-6.346;2023-12-20T11:34:22;1.40;;;1.40;;
41099;SDS011;26844;53.686;-6.346;2023-12-20T11:36:56;1.40;;;1.40;;
41099;SDS011;26844;53.686;-6.346;2023-12-20T11:39:22;1.25;;;1.25;;
41099;SDS011;26844;53.686;-6.346;2023-12-20T11:41:48;1.30;;;1.30;;
41099;SDS011;26844;53.686;-6.346;2023-12-20T11:44:14;1.30;;;1.30;;
41099;SDS011;26844;53.686;-6.346;2023-12-20T11:46:42;1.25;;;1.25;;
41099;SDS011;26844;53.686;-6.346;2023-12-20T11:49:07;1.10;;;1.10;;
41099;SDS011;26844;53.686;-6.346;2023-12-20T11:51:33;1.40;;;1.40;;
41099;SDS011;26844;53.686;-6.346;2023-12-20T11:53:58;1.10;;;1.10;;
41099;SDS011;26844;53.686;-6.346;2023-12-20T11:56:23;1.00;;;1.00;;
41099;SDS011;26844;53.686;-6.346;2023-12-20T11:58:49;1.20;;;1.20;;
41099;SDS011;26844;53.686;-6.346;2023-12-20T12:01:14;1.40;;;1.40;;
41099;SDS011;26844;53.686;-6.346;2023-12-20T12:03:39;1.50;;;1.50;;
41099;SDS011;26844;53.686;-6.346;2023-12-20T12:06:06;1.50;;;1.50;;
41099;SDS011;26844;53.686;-6.346;2023-12-20T12:08:32;1.50;;;1.50;;
41099;SDS011;26844;53.686;-6.346;2023-12-20T12:10:58;1.55;;;1.55;;
41099;SDS011;26844;53.686;-6.346;2023-12-20T12:13:24;1.60;;;1.60;;
41099;SDS011;26844;53.686;-6.346;2023-12-20T12:15:52;1.65;;;1.65;;
41099;SDS011;26844;53.686;-6.346;2023-12-20T12:18:18;1.75;;;1.75;;
41099;SDS011;26844;53.686;-6.346;2023-12-20T12:20:43;1.40;;;1.40;;
41099;SDS011;26844;53.686;-6.346;2023-12-20T12:23:08;1.55;;;1.55;;
41099;SDS011;26844;53.686;-6.346;2023-12-20T12:25:37;1.25;;;1.25;;
41099;SDS011;26844;53.686;-6.346;2023-12-20T12:28:02;1.70;;;1.70;;
41099;SDS011;26844;53.686;-6.346;2023-12-20T12:30:28;2.20;;;2.20;;
41099;SDS011;26844;53.686;-6.346;2023-12-20T12:32:54;2.10;;;2.10;;
41099;SDS011;26844;53.686;-6.346;2023-12-20T12:35:21;1.90;;;1.90;;
41099;SDS011;26844;53.686;-6.346;2023-12-20T12:37:46;1.60;;;1.60;;
41099;SDS011;26844;53.686;-6.346;2023-12-20T12:40:15;1.85;;;1.85;;
41099;SDS011;26844;53.686;-6.346;2023-12-20T12:42:41;1.58;;;1.58;;
41099;SDS011;26844;53.686;-6.346;2023-12-20T12:45:07;1.90;;;1.90;;
41099;SDS011;26844;53.686;-6.346;2023-12-20T12:47:34;1.80;;;1.80;;
41099;SDS011;26844;53.686;-6.346;2023-12-20T12:49:59;1.73;;;1.73;;
41099;SDS011;26844;53.686;-6.346;2023-12-20T12:52:24;1.40;;;1.40;;
41099;SDS011;26844;53.686;-6.346;2023-12-20T12:54:51;1.87;;;1.87;;
41099;SDS011;26844;53.686;-6.346;2023-12-20T12:57:16;1.75;;;1.75;;
41099;SDS011;26844;53.686;-6.346;2023-12-20T12:59:42;2.13;;;2.13;;
41099;SDS011;26844;53.686;-6.346;2023-12-20T13:02:09;2.13;;;2.13;;
41099;SDS011;26844;53.686;-6.346;2023-12-20T13:04:34;2.00;;;2.00;;
41099;SDS011;26844;53.686;-6.346;2023-12-20T13:06:59;2.20;;;2.20;;
41099;SDS011;26844;53.686;-6.346;2023-12-20T13:09:25;2.60;;;2.50;;
41099;SDS011;26844;53.686;-6.346;2023-12-20T13:11:50;2.75;;;2.65;;
41099;SDS011;26844;53.686;-6.346;2023-12-20T13:14:15;3.15;;;3.05;;
41099;SDS011;26844;53.686;-6.346;2023-12-20T13:16:41;3.10;;;3.00;;
41099;SDS011;26844;53.686;-6.346;2023-12-20T13:19:07;3.47;;;3.38;;
41099;SDS011;26844;53.686;-6.346;2023-12-20T13:21:32;3.38;;;3.28;;
41099;SDS011;26844;53.686;-6.346;2023-12-20T13:23:57;3.10;;;3.00;;
41099;SDS011;26844;53.686;-6.346;2023-12-20T13:26:22;3.20;;;3.10;;
41099;SDS011;26844;53.686;-6.346;2023-12-20T13:28:48;3.40;;;3.30;;
41099;SDS011;26844;53.686;-6.346;2023-12-20T13:31:13;3.92;;;3.83;;
41099;SDS011;26844;53.686;-6.346;2023-12-20T13:33:38;3.30;;;3.20;;
41099;SDS011;26844;53.686;-6.346;2023-12-20T13:36:04;3.80;;;3.70;;
41099;SDS011;26844;53.686;-6.346;2023-12-20T13:38:29;4.28;;;4.18;;
41099;SDS011;26844;53.686;-6.346;2023-12-20T13:40:55;4.88;;;4.68;;
41099;SDS011;26844;53.686;-6.346;2023-12-20T13:43:20;4.30;;;4.20;;
41099;SDS011;26844;53.686;-6.346;2023-12-20T13:45:46;4.40;;;4.30;;
41099;SDS011;26844;53.686;-6.346;2023-12-20T13:48:11;5.10;;;4.90;;
41099;SDS011;26844;53.686;-6.346;2023-12-20T13:50:37;5.10;;;4.90;;
41099;SDS011;26844;53.686;-6.346;2023-12-20T13:53:02;5.00;;;4.80;;
41099;SDS011;26844;53.686;-6.346;2023-12-20T13:55:29;5.22;;;5.03;;
41099;SDS011;26844;53.686;-6.346;2023-12-20T13:57:55;5.90;;;5.70;;
41099;SDS011;26844;53.686;-6.346;2023-12-20T14:00:20;6.18;;;5.97;;
41099;SDS011;26844;53.686;-6.346;2023-12-20T14:02:46;5.90;;;5.70;;
41099;SDS011;26844;53.686;-6.346;2023-12-20T14:05:11;4.97;;;4.78;;
41099;SDS011;26844;53.686;-6.346;2023-12-20T14:07:36;4.55;;;4.45;;
41099;SDS011;26844;53.686;-6.346;2023-12-20T14:10:02;5.10;;;4.90;;
41099;SDS011;26844;53.686;-6.346;2023-12-20T14:12:27;5.28;;;5.07;;
41099;SDS011;26844;53.686;-6.346;2023-12-20T14:14:52;5.93;;;5.72;;
41099;SDS011;26844;53.686;-6.346;2023-12-20T14:17:20;5.90;;;5.70;;
41099;SDS011;26844;53.686;-6.346;2023-12-20T14:19:45;6.10;;;5.90;;
41099;SDS011;26844;53.686;-6.346;2023-12-20T14:22:10;6.50;;;6.30;;
41099;SDS011;26844;53.686;-6.346;2023-12-20T14:24:35;5.90;;;5.70;;
41099;SDS011;26844;53.686;-6.346;2023-12-20T14:27:01;5.50;;;5.30;;
41099;SDS011;26844;53.686;-6.346;2023-12-20T14:29:26;5.50;;;5.30;;
41099;SDS011;26844;53.686;-6.346;2023-12-20T14:31:52;5.50;;;5.30;;